Sunday, February 17, 2019, 3:40 PM EST
Back to Local

KDXR, Danbury Municipal Airport

Location: Danbury, CT, United States Lat: 41.367
Local Time: 3:40 PM EST (20:40 GMT) Lon: -73.483
Time Zone: US/Eastern Elev: 459 ft

Show me the last for .
Show Decoded

2019-02-17 14:53 METAR KDXR 171953Z 00000KT 10SM CLR 02/M12 A3004 RMK AO2 SLP178 T00171122 =
2019-02-17 13:53 METAR KDXR 171853Z VRB06KT 10SM CLR 02/M11 A3010 RMK AO2 SLP198 T00171111 =
2019-02-17 12:53 METAR KDXR 171753Z 00000KT 10SM CLR 01/M12 A3010 RMK AO2 SLP198 T00111117 10011
                 21061 56021 =
2019-02-17 11:53 METAR KDXR 171653Z 11004KT 10SM CLR M01/M11 A3011 RMK AO2 SLP201 T10061106 =
2019-02-17 10:53 METAR KDXR 171553Z 02007KT 350V060 10SM CLR M02/M11 A3011 RMK AO2 SLP200
                 T10171106 =
2019-02-17 09:53 METAR KDXR 171453Z 34004KT 10SM CLR M02/M11 A3016 RMK AO2 SLP219 T10171106 51023
                 =
2019-02-17 08:53 METAR KDXR 171353Z 04006KT 10SM CLR M04/M12 A3015 RMK AO2 SLP215 T10391117 =
2019-02-17 07:53 METAR KDXR 171253Z 01007KT 10SM CLR M05/M12 A3013 RMK AO2 SLP209 T10501117 =
2019-02-17 06:53 METAR KDXR 171153Z 35003KT 10SM CLR M06/M12 A3010 RMK AO2 SLP196 T10611117 11044
                 21072 52007 =
2019-02-17 05:53 METAR KDXR 171053Z AUTO 02004KT 10SM CLR M06/M12 A3008 RMK AO2 SLP192 T10611117
                 =
2019-02-17 04:53 METAR KDXR 170953Z AUTO 32004KT 10SM CLR M06/M11 A3009 RMK AO2 SLP192 T10611111
                 =
2019-02-17 03:53 METAR KDXR 170853Z AUTO 24003KT 10SM CLR M07/M12 A3007 RMK AO2 SLP188 T10671117
                 53001 =
2019-02-17 02:53 METAR KDXR 170753Z AUTO 06003KT 10SM CLR M05/M12 A3005 RMK AO2 SLP179 T10501117
                 =
2019-02-17 01:53 METAR KDXR 170653Z AUTO 36005KT 10SM CLR M05/M12 A3007 RMK AO2 SLP187 T10501117
                 =
2019-02-17 00:53 METAR KDXR 170553Z AUTO VRB03KT 10SM CLR M04/M11 A3007 RMK AO2 SLP187 T10441111
                 10000 21044 53021 =
2019-02-16 23:53 METAR KDXR 170453Z AUTO 35005KT 10SM CLR M04/M11 A3005 RMK AO2 SLP179 T10391111
                 400501039 =
2019-02-16 22:53 METAR KDXR 170353Z AUTO 36006KT 10SM CLR M04/M11 A3002 RMK AO2 SLP170 T10391111
                 =
2019-02-16 21:53 METAR KDXR 170253Z 35006KT 10SM CLR M03/M11 A3001 RMK AO2 SLP165 T10281106 53026
                 =
2019-02-16 20:53 METAR KDXR 170153Z 01010KT 10SM CLR M01/M12 A2997 RMK AO2 SLP153 T10111117 =
2019-02-16 19:53 METAR KDXR 170053Z 35007G17KT 10SM CLR M01/M10 A2995 RMK AO2 SLP144 T10111100 =
2019-02-16 18:53 METAR KDXR 162353Z 01011G17KT 10SM CLR 00/M09 A2993 RMK AO2 SLP139 T00001089
                 10044 20000 53029 =
2019-02-16 17:53 METAR KDXR 162253Z 35009KT 10SM CLR 02/M08 A2990 RMK AO2 SLP129 T00171083 =
2019-02-16 16:53 METAR KDXR 162153Z 32009KT 10SM CLR 03/M08 A2986 RMK AO2 SLP115 T00331083 =
2019-02-16 15:53 METAR KDXR 162053Z 34009KT 10SM CLR 04/M08 A2984 RMK AO2 SLP108 T00391078 53005
                 =

Support USWX by starting your Amazon purchase here.